| time (UTC) | temp F | wind direction | speed knots | gust knots | rain 1hr in | rain 24hr in | rain mn in | humidity % | barometer mb |
| 20260503192538 | 46 | 358 | 1.7 | 2.6 | 0.00 | 0.03 | 0.00 | 91 | 1016.0 |
| 20260503192040 | 46 | 11 | 1.7 | 2.6 | 0.00 | 0.03 | 0.00 | 91 | 1016.0 |
| 20260503191553 | 46 | 14 | 1.7 | 2.6 | 0.00 | 0.03 | 0.00 | 90 | 1016.0 |
| 20260503191039 | 46 | 26 | 0.9 | 2.6 | 0.00 | 0.03 | 0.00 | 90 | 1016.0 |
| 20260503190540 | 46 | 26 | 0.9 | 2.6 | 0.00 | 0.03 | 0.00 | 90 | 1016.0 |
| 20260503190105 | 46 | 31 | 0.9 | 2.6 | 0.00 | 0.03 | 0.00 | 89 | 1016.0 |
| 20260503185539 | 46 | 31 | 1.7 | 2.6 | 0.00 | 0.03 | 0.00 | 89 | 1015.9 |
| 20260503185042 | 46 | 31 | 0.9 | 2.6 | 0.00 | 0.03 | 0.00 | 89 | 1015.9 |
| 20260503184553 | 46 | 31 | 1.7 | 2.6 | 0.00 | 0.03 | 0.00 | 88 | 1015.9 |
| 20260503184040 | 47 | 32 | 0.9 | 1.7 | 0.00 | 0.03 | 0.00 | 88 | 1015.8 |
| 20260503183539 | 47 | 32 | 0.0 | 1.7 | 0.00 | 0.03 | 0.00 | 88 | 1015.8 |
| 20260503183101 | 47 | 32 | 0.0 | 1.7 | 0.00 | 0.03 | 0.00 | 87 | 1015.9 |
| 20260503182536 | 48 | 32 | 0.9 | 1.7 | 0.00 | 0.03 | 0.00 | 87 | 1015.9 |
| 20260503182039 | 48 | 32 | 0.9 | 1.7 | 0.00 | 0.03 | 0.00 | 87 | 1016.0 |
| 20260503181547 | 48 | 35 | 0.0 | 1.7 | 0.00 | 0.03 | 0.00 | 87 | 1016.0 |
| 20260503181040 | 48 | 37 | 0.0 | 1.7 | 0.00 | 0.03 | 0.00 | 87 | 1016.0 |
| 20260503180540 | 49 | 9 | 0.0 | 2.6 | 0.00 | 0.03 | 0.00 | 87 | 1016.0 |
| 20260503180056 | 49 | 23 | 0.9 | 2.6 | 0.00 | 0.03 | 0.00 | 86 | 1016.0 |
| 20260503175540 | 49 | 24 | 0.9 | 2.6 | 0.00 | 0.03 | 0.00 | 86 | 1016.0 |
| 20260503175039 | 49 | 352 | 0.9 | 2.6 | 0.00 | 0.03 | 0.00 | 87 | 1016.0 |
| 20260503174547 | 49 | 333 | 0.9 | 2.6 | 0.00 | 0.03 | 0.00 | 86 | 1016.0 |
| 20260503174041 | 49 | 355 | 0.9 | 3.5 | 0.00 | 0.03 | 0.00 | 86 | 1016.0 |
| 20260503173543 | 48 | 45 | 0.9 | 3.5 | 0.00 | 0.03 | 0.00 | 86 | 1016.1 |
| 20260503173109 | 48 | 352 | 0.9 | 3.5 | 0.00 | 0.03 | 0.00 | 86 | 1016.1 |
| 20260503172540 | 48 | 34 | 1.7 | 3.5 | 0.00 | 0.03 | 0.00 | 86 | 1016.1 |
| 20260503172042 | 48 | 6 | 1.7 | 3.5 | 0.00 | 0.03 | 0.00 | 85 | 1016.1 |
| 20260503171552 | 48 | 5 | 1.7 | 3.5 | 0.00 | 0.03 | 0.00 | 85 | 1016.1 |
| 20260503171040 | 49 | 13 | 1.7 | 3.5 | 0.00 | 0.03 | 0.00 | 84 | 1016.2 |
| 20260503170541 | 49 | 15 | 1.7 | 3.5 | 0.00 | 0.03 | 0.00 | 85 | 1016.1 |
| 20260503150537 | 51 | 319 | 1.7 | 3.5 | 0.00 | 0.03 | 0.00 | 84 | 1016.4 |
| 20260503131038 | 54 | 336 | 0.9 | 5.2 | 0.00 | 0.03 | 0.03 | 82 | 1017.0 |
| 20260503130539 | 54 | 319 | 2.6 | 5.2 | 0.00 | 0.03 | 0.03 | 83 | 1017.0 |
| 20260503110543 | 56 | 40 | 0.9 | 2.6 | 0.00 | 0.00 | 0.00 | 69 | 1016.3 |
| 20260503100104 | 58 | 349 | 4.3 | 8.7 | 0.00 | 0.00 | 0.00 | 62 | 1015.5 |
| 20260503081549 | 61 | 316 | 5.2 | 8.7 | 0.00 | 0.00 | 0.00 | 51 | 1014.4 |
| 20260503081037 | 61 | 314 | 4.3 | 11.3 | 0.00 | 0.00 | 0.00 | 51 | 1014.4 |
| 20260503080544 | 61 | 304 | 5.2 | 11.3 | 0.00 | 0.00 | 0.00 | 51 | 1014.4 |
| 20260503072539 | 62 | 326 | 4.3 | 11.3 | 0.00 | 0.00 | 0.00 | 49 | 1014.3 |
| 20260503072041 | 62 | 301 | 4.3 | 14.8 | 0.00 | 0.00 | 0.00 | 48 | 1014.2 |
| 20260503071607 | 63 | 303 | 7.0 | 14.8 | 0.00 | 0.00 | 0.00 | 47 | 1014.2 |
| 20260503071041 | 63 | 314 | 7.0 | 11.3 | 0.00 | 0.00 | 0.00 | 47 | 1014.2 |
| 20260503070539 | 63 | 295 | 5.2 | 9.6 | 0.00 | 0.00 | 0.00 | 46 | 1014.1 |
| 20260503055041 | 65 | 307 | 7.0 | 13.9 | 0.00 | 0.00 | 0.00 | 42 | 1014.2 |
| 20260503054556 | 65 | 302 | 4.3 | 13.0 | 0.00 | 0.00 | 0.00 | 43 | 1014.0 |
| 20260503054041 | 65 | 289 | 7.0 | 13.0 | 0.00 | 0.00 | 0.00 | 43 | 1014.1 |
| 20260503053541 | 65 | 295 | 4.3 | 12.2 | 0.00 | 0.00 | 0.00 | 43 | 1014.0 |
| 20260503053058 | 65 | 319 | 7.0 | 12.2 | 0.00 | 0.00 | 0.00 | 43 | 1014.1 |
| 20260503052542 | 65 | 304 | 6.1 | 11.3 | 0.00 | 0.04 | 0.00 | 43 | 1014.0 |
| 20260503052041 | 65 | 306 | 4.3 | 9.6 | 0.00 | 0.04 | 0.00 | 45 | 1014.0 |
| 20260503051557 | 64 | 236 | 6.1 | 11.3 | 0.00 | 0.04 | 0.00 | 44 | 1014.0 |
| 20260503051041 | 65 | 245 | 5.2 | 12.2 | 0.00 | 0.04 | 0.00 | 44 | 1014.1 |
| 20260503050545 | 65 | 316 | 6.1 | 12.2 | 0.00 | 0.04 | 0.00 | 43 | 1014.0 |
| 20260503050100 | 65 | 258 | 5.2 | 12.2 | 0.00 | 0.04 | 0.00 | 43 | 1013.9 |
| 20260503045541 | 65 | 250 | 5.2 | 12.2 | 0.00 | 0.04 | 0.00 | 43 | 1014.0 |
| 20260503045040 | 65 | 292 | 5.2 | 11.3 | 0.00 | 0.04 | 0.00 | 44 | 1013.9 |
| 20260503044554 | 65 | 304 | 5.2 | 10.4 | 0.00 | 0.04 | 0.00 | 44 | 1013.9 |
| 20260503044043 | 64 | 245 | 4.3 | 13.9 | 0.00 | 0.04 | 0.00 | 44 | 1013.8 |
| 20260503043541 | 65 | 296 | 5.2 | 13.9 | 0.00 | 0.04 | 0.00 | 43 | 1013.9 |
| 20260503043055 | 65 | 300 | 5.2 | 12.2 | 0.00 | 0.04 | 0.00 | 44 | 1013.9 |
| 20260503042541 | 64 | 312 | 6.1 | 12.2 | 0.00 | 0.04 | 0.00 | 44 | 1013.9 |
| 20260503042041 | 65 | 334 | 7.0 | 12.2 | 0.00 | 0.04 | 0.00 | 44 | 1014.0 |
| 20260503041556 | 65 | 307 | 5.2 | 10.4 | 0.00 | 0.04 | 0.00 | 44 | 1014.0 |
| 20260503041040 | 65 | 321 | 5.2 | 10.4 | 0.00 | 0.04 | 0.00 | 44 | 1014.1 |
| 20260503040540 | 64 | 284 | 5.2 | 10.4 | 0.00 | 0.04 | 0.00 | 43 | 1014.1 |
| 20260503040055 | 64 | 309 | 4.3 | 10.4 | 0.00 | 0.04 | 0.00 | 45 | 1014.2 |
| 20260503035541 | 64 | 278 | 4.3 | 13.0 | 0.00 | 0.04 | 0.00 | 45 | 1014.1 |
| 20260503035041 | 64 | 259 | 6.1 | 13.0 | 0.00 | 0.04 | 0.00 | 45 | 1014.2 |
| 20260503034550 | 64 | 326 | 6.1 | 11.3 | 0.00 | 0.04 | 0.00 | 44 | 1014.4 |
| 20260503034042 | 64 | 266 | 6.1 | 12.2 | 0.00 | 0.04 | 0.00 | 44 | 1014.4 |
| 20260503033542 | 64 | 314 | 5.2 | 13.9 | 0.00 | 0.04 | 0.00 | 47 | 1014.5 |
| 20260503033051 | 63 | 326 | 6.1 | 13.9 | 0.00 | 0.04 | 0.00 | 45 | 1014.6 |
| 20260503032540 | 64 | 308 | 7.0 | 12.2 | 0.00 | 0.05 | 0.00 | 46 | 1014.7 |
| 20260503032040 | 64 | 314 | 5.2 | 12.2 | 0.00 | 0.05 | 0.00 | 47 | 1014.7 |
| 20260503031550 | 64 | 290 | 5.2 | 13.0 | 0.00 | 0.05 | 0.00 | 47 | 1014.9 |
| 20260503031041 | 63 | 311 | 7.0 | 13.0 | 0.00 | 0.05 | 0.00 | 46 | 1014.9 |
| 20260503030540 | 63 | 321 | 7.0 | 12.2 | 0.00 | 0.05 | 0.00 | 47 | 1015.0 |
| 20260503030051 | 63 | 227 | 5.2 | 14.8 | 0.00 | 0.05 | 0.00 | 48 | 1015.0 |
| 20260503025540 | 63 | 306 | 5.2 | 14.8 | 0.00 | 0.05 | 0.00 | 48 | 1015.0 |
| 20260503025041 | 63 | 19 | 6.1 | 13.0 | 0.00 | 0.05 | 0.00 | 52 | 1015.0 |
| 20260503024600 | 62 | 329 | 6.1 | 13.9 | 0.00 | 0.05 | 0.00 | 53 | 1015.1 |
| 20260503024040 | 62 | 333 | 5.2 | 13.9 | 0.00 | 0.05 | 0.00 | 53 | 1015.2 |
| 20260503023539 | 62 | 291 | 7.0 | 13.9 | 0.00 | 0.05 | 0.00 | 53 | 1015.3 |
| 20260503023052 | 61 | 17 | 5.2 | 15.6 | 0.00 | 0.05 | 0.00 | 55 | 1015.3 |
| 20260503022540 | 62 | 300 | 7.8 | 15.6 | 0.00 | 0.05 | 0.00 | 53 | 1015.4 |
| 20260503022038 | 62 | 308 | 6.1 | 12.2 | 0.00 | 0.05 | 0.00 | 52 | 1015.4 |
| 20260503021550 | 62 | 313 | 5.2 | 14.8 | 0.00 | 0.05 | 0.00 | 55 | 1015.5 |
| 20260503021039 | 61 | 325 | 7.0 | 14.8 | 0.00 | 0.05 | 0.00 | 54 | 1015.4 |
| 20260503020544 | 61 | 234 | 6.1 | 12.2 | 0.00 | 0.05 | 0.00 | 54 | 1015.7 |
| 20260503020056 | 61 | 301 | 6.1 | 11.3 | 0.00 | 0.05 | 0.00 | 53 | 1015.6 |
| 20260503015540 | 61 | 309 | 6.1 | 14.8 | 0.00 | 0.05 | 0.00 | 53 | 1015.7 |
| 20260503015043 | 61 | 290 | 6.1 | 14.8 | 0.00 | 0.05 | 0.00 | 53 | 1015.6 |
| 20260503014614 | 60 | 294 | 6.1 | 14.8 | 0.00 | 0.05 | 0.00 | 52 | 1015.6 |
| 20260503014039 | 60 | 291 | 7.0 | 13.9 | 0.00 | 0.05 | 0.00 | 53 | 1015.7 |
| 20260503013541 | 60 | 299 | 7.0 | 15.6 | 0.00 | 0.05 | 0.00 | 54 | 1015.7 |
| 20260503013050 | 60 | 314 | 5.2 | 15.6 | 0.00 | 0.05 | 0.00 | 54 | 1015.7 |
| 20260503012543 | 60 | 314 | 6.1 | 15.6 | 0.00 | 0.06 | 0.00 | 54 | 1015.8 |
| 20260503012040 | 60 | 303 | 4.3 | 10.4 | 0.00 | 0.06 | 0.00 | 55 | 1015.9 |
| 20260503011558 | 60 | 355 | 6.1 | 13.9 | 0.00 | 0.06 | 0.00 | 54 | 1015.7 |
| 20260503011039 | 60 | 244 | 7.0 | 13.9 | 0.00 | 0.06 | 0.00 | 54 | 1015.6 |
| 20260503010541 | 60 | 302 | 6.1 | 12.2 | 0.00 | 0.06 | 0.00 | 54 | 1015.7 |
| 20260503010054 | 60 | 318 | 4.3 | 13.0 | 0.00 | 0.06 | 0.00 | 55 | 1015.7 |
| 20260503005541 | 59 | 203 | 7.0 | 13.0 | 0.00 | 0.06 | 0.00 | 55 | 1015.7 |
| 20260503005041 | 59 | 288 | 6.1 | 11.3 | 0.00 | 0.06 | 0.00 | 54 | 1015.9 |
| 20260503004557 | 59 | 238 | 6.1 | 12.2 | 0.00 | 0.06 | 0.00 | 56 | 1015.9 |
| 20260503004039 | 59 | 244 | 5.2 | 12.2 | 0.00 | 0.06 | 0.00 | 56 | 1016.0 |
| 20260503003539 | 59 | 285 | 4.3 | 10.4 | 0.00 | 0.06 | 0.00 | 57 | 1016.1 |
| 20260503003100 | 58 | 331 | 5.2 | 10.4 | 0.00 | 0.06 | 0.00 | 57 | 1016.2 |
| 20260503002539 | 58 | 213 | 5.2 | 9.6 | 0.00 | 0.08 | 0.00 | 58 | 1016.3 |
| 20260503002041 | 58 | 287 | 3.5 | 7.0 | 0.00 | 0.08 | 0.00 | 58 | 1016.3 |
| 20260503001554 | 58 | 288 | 3.5 | 7.0 | 0.00 | 0.08 | 0.00 | 61 | 1016.4 |
| 20260503001038 | 57 | 286 | 3.5 | 6.1 | 0.00 | 0.08 | 0.00 | 64 | 1016.4 |
| 20260503000542 | 57 | 298 | 2.6 | 8.7 | 0.00 | 0.08 | 0.00 | 67 | 1016.3 |
| 20260503000049 | 56 | 311 | 3.5 | 8.7 | 0.00 | 0.08 | 0.00 | 66 | 1016.3 |
| 20260502235541 | 56 | 307 | 2.6 | 5.2 | 0.00 | 0.08 | 0.00 | 68 | 1016.3 |
| 20260502235039 | 56 | 304 | 2.6 | 5.2 | 0.00 | 0.08 | 0.00 | 67 | 1016.4 |
| 20260502234550 | 56 | 1 | 2.6 | 6.1 | 0.00 | 0.08 | 0.00 | 68 | 1016.4 |
| 20260502234039 | 56 | 304 | 2.6 | 8.7 | 0.00 | 0.08 | 0.00 | 70 | 1016.3 |
| 20260502233541 | 55 | 304 | 3.5 | 8.7 | 0.00 | 0.08 | 0.00 | 71 | 1016.4 |
| 20260502233053 | 55 | 8 | 3.5 | 8.7 | 0.00 | 0.08 | 0.00 | 71 | 1016.4 |
| 20260502232541 | 54 | 356 | 1.7 | 4.3 | 0.00 | 0.08 | 0.00 | 72 | 1016.2 |
| 20260502232039 | 54 | 314 | 1.7 | 4.3 | 0.00 | 0.08 | 0.00 | 73 | 1016.3 |
| 20260502231553 | 54 | 311 | 1.7 | 5.2 | 0.00 | 0.08 | 0.00 | 74 | 1016.2 |
| 20260502231042 | 53 | 342 | 2.6 | 5.2 | 0.00 | 0.08 | 0.00 | 75 | 1016.0 |
| 20260502230542 | 53 | 312 | 0.9 | 5.2 | 0.00 | 0.08 | 0.00 | 76 | 1016.0 |
| 20260502230055 | 52 | 0 | 0.9 | 7.0 | 0.00 | 0.08 | 0.00 | 78 | 1016.0 |
| 20260502225541 | 52 | 340 | 1.7 | 7.0 | 0.00 | 0.08 | 0.00 | 79 | 1015.9 |
| 20260502225041 | 52 | 335 | 1.7 | 5.2 | 0.00 | 0.08 | 0.00 | 80 | 1015.8 |
| 20260502224604 | 51 | 291 | 1.7 | 5.2 | 0.00 | 0.08 | 0.00 | 83 | 1015.8 |
| 20260502224039 | 50 | 357 | 1.7 | 3.5 | 0.00 | 0.08 | 0.00 | 83 | 1015.7 |
| 20260502223541 | 50 | 44 | 0.0 | 5.2 | 0.00 | 0.08 | 0.00 | 84 | 1015.8 |
| 20260502223046 | 49 | 0 | 0.0 | 5.2 | 0.00 | 0.08 | 0.00 | 84 | 1015.7 |
| 20260502222539 | 49 | 41 | 0.0 | 2.6 | 0.00 | 0.08 | 0.00 | 84 | 1015.6 |
| 20260502222041 | 49 | 47 | 0.9 | 2.6 | 0.00 | 0.08 | 0.00 | 82 | 1015.5 |
| 20260502221550 | 49 | 28 | 0.9 | 2.6 | 0.00 | 0.08 | 0.00 | 81 | 1015.4 |
| 20260502221042 | 50 | 6 | 1.7 | 4.3 | 0.00 | 0.08 | 0.00 | 80 | 1015.4 |
| 20260502220545 | 50 | 350 | 1.7 | 4.3 | 0.00 | 0.08 | 0.00 | 80 | 1015.3 |
| 20260502220049 | 50 | 307 | 1.7 | 4.3 | 0.00 | 0.08 | 0.00 | 80 | 1015.3 |
| 20260502215541 | 49 | 305 | 1.7 | 6.1 | 0.00 | 0.08 | 0.00 | 81 | 1015.0 |
| 20260502215045 | 49 | 331 | 2.6 | 6.1 | 0.00 | 0.08 | 0.00 | 81 | 1015.0 |
| 20260502214550 | 49 | 308 | 1.7 | 5.2 | 0.00 | 0.08 | 0.00 | 82 | 1015.0 |
| 20260502214038 | 48 | 315 | 0.9 | 5.2 | 0.00 | 0.08 | 0.00 | 82 | 1014.9 |
| 20260502213541 | 48 | 314 | 1.7 | 5.2 | 0.00 | 0.08 | 0.00 | 82 | 1014.9 |
| 20260502213103 | 48 | 314 | 0.9 | 5.2 | 0.00 | 0.08 | 0.00 | 81 | 1015.0 |
| 20260502212539 | 49 | 309 | 2.6 | 4.3 | 0.00 | 0.08 | 0.00 | 81 | 1014.9 |
| 20260502212043 | 48 | 0 | 1.7 | 3.5 | 0.00 | 0.08 | 0.00 | 82 | 1014.9 |
| 20260502211601 | 49 | 316 | 0.9 | 3.5 | 0.00 | 0.08 | 0.00 | 81 | 1015.0 |
| 20260502211042 | 49 | 309 | 0.9 | 3.5 | 0.00 | 0.08 | 0.00 | 81 | 1014.9 |
| 20260502210559 | 49 | 308 | 1.7 | 3.5 | 0.00 | 0.08 | 0.00 | 80 | 1014.7 |
| 20260502210049 | 49 | 314 | 0.0 | 2.6 | 0.00 | 0.08 | 0.00 | 80 | 1014.7 |
| 20260502205537 | 50 | 319 | 0.9 | 2.6 | 0.00 | 0.08 | 0.00 | 80 | 1014.7 |
| 20260502205040 | 50 | 304 | 0.0 | 4.3 | 0.00 | 0.08 | 0.00 | 80 | 1014.6 |
| 20260502204547 | 50 | 295 | 0.9 | 4.3 | 0.00 | 0.08 | 0.00 | 80 | 1014.6 |
| 20260502204039 | 49 | 259 | 0.9 | 4.3 | 0.00 | 0.08 | 0.00 | 80 | 1014.6 |
| 20260502203540 | 50 | 309 | 0.9 | 3.5 | 0.00 | 0.08 | 0.00 | 79 | 1014.5 |
| 20260502203057 | 50 | 338 | 0.9 | 4.3 | 0.00 | 0.08 | 0.00 | 78 | 1014.4 |
| 20260502202536 | 50 | 282 | 0.9 | 6.1 | 0.00 | 0.08 | 0.00 | 78 | 1014.5 |
| 20260502202036 | 50 | 307 | 2.6 | 6.1 | 0.00 | 0.08 | 0.00 | 80 | 1014.3 |
| 20260502201556 | 50 | 326 | 1.7 | 4.3 | 0.00 | 0.08 | 0.00 | 79 | 1014.3 |
| 20260502201042 | 50 | 261 | 1.7 | 4.3 | 0.00 | 0.08 | 0.00 | 79 | 1014.3 |
| 20260502200539 | 50 | 309 | 0.0 | 4.3 | 0.00 | 0.08 | 0.00 | 78 | 1014.3 |
| 20260502200049 | 50 | 306 | 0.9 | 4.3 | 0.00 | 0.08 | 0.00 | 78 | 1014.3 |
| 20260502195539 | 50 | 0 | 0.9 | 4.3 | 0.00 | 0.08 | 0.00 | 78 | 1014.1 |
| 20260502195038 | 51 | 312 | 0.9 | 5.2 | 0.00 | 0.08 | 0.00 | 78 | 1014.2 |
| 20260502194556 | 51 | 283 | 0.9 | 5.2 | 0.00 | 0.08 | 0.00 | 78 | 1014.3 |
| 20260502194039 | 50 | 267 | 2.6 | 5.2 | 0.00 | 0.08 | 0.00 | 78 | 1014.3 |
| 20260502193545 | 50 | 252 | 0.9 | 3.5 | 0.00 | 0.08 | 0.00 | 78 | 1014.2 |
| 20260502193052 | 50 | 297 | 0.9 | 5.2 | 0.00 | 0.08 | 0.00 | 79 | 1014.2 |